createdAt,value
2022-10-24T00:00:56.030Z,2.7
2022-10-24T00:01:56.624Z,2.0
2022-10-24T00:02:57.278Z,2.4
2022-10-24T00:03:57.869Z,1.7
2022-10-24T00:04:58.421Z,1.8
2022-10-24T00:05:59.016Z,1.6
2022-10-24T00:06:59.627Z,2.2
2022-10-24T00:08:00.224Z,2.1
2022-10-24T00:09:00.817Z,2.4
2022-10-24T00:10:01.410Z,2.0
2022-10-24T00:11:02.004Z,1.8
2022-10-24T00:12:02.598Z,1.9
2022-10-24T00:13:03.195Z,2.6
2022-10-24T00:14:03.824Z,2.1
2022-10-24T00:15:04.452Z,1.8
2022-10-24T00:16:04.971Z,2.0
2022-10-24T00:17:05.564Z,1.8
2022-10-24T00:18:06.162Z,1.8
2022-10-24T00:19:06.774Z,1.9
2022-10-24T00:20:07.368Z,1.9
2022-10-24T00:21:07.969Z,2.0
2022-10-24T00:22:08.557Z,2.2
2022-10-24T00:23:09.170Z,1.9
2022-10-24T00:24:09.765Z,2.2
2022-10-24T00:25:10.358Z,2.1
2022-10-24T00:26:10.951Z,2.0
2022-10-24T00:27:11.541Z,2.4
2022-10-24T00:28:12.137Z,2.2
2022-10-24T00:29:12.729Z,2.8
2022-10-24T00:30:13.325Z,3.0
2022-10-24T00:31:13.916Z,2.2
2022-10-24T00:32:14.516Z,2.3
2022-10-24T00:33:15.107Z,2.4
2022-10-24T00:34:15.699Z,2.3
2022-10-24T00:35:16.294Z,2.0
2022-10-24T00:36:16.887Z,2.4
2022-10-24T00:37:17.552Z,2.3
2022-10-24T00:38:18.155Z,2.1
2022-10-24T00:39:18.747Z,2.4
2022-10-24T00:40:19.342Z,2.5
2022-10-24T00:41:19.934Z,2.4
2022-10-24T00:42:20.527Z,2.2
2022-10-24T00:43:21.122Z,2.1
2022-10-24T00:44:21.716Z,2.4
2022-10-24T00:45:22.308Z,2.4
2022-10-24T00:46:22.903Z,2.5
2022-10-24T00:47:23.495Z,2.4
2022-10-24T00:48:24.090Z,2.1
2022-10-24T00:49:24.685Z,2.5
2022-10-24T00:50:25.279Z,2.8
2022-10-24T00:51:25.870Z,2.7
2022-10-24T00:52:26.464Z,2.3
2022-10-24T00:53:27.077Z,2.5
2022-10-24T00:54:27.672Z,1.7
2022-10-24T00:55:28.263Z,2.4
2022-10-24T00:56:28.855Z,2.0
2022-10-24T00:57:29.449Z,2.2
2022-10-24T00:58:30.042Z,3.1
2022-10-24T00:59:30.636Z,2.3
2022-10-24T01:00:31.274Z,2.3
2022-10-24T01:01:31.929Z,2.5
2022-10-24T01:02:32.481Z,2.4
2022-10-24T01:03:33.072Z,2.6
2022-10-24T01:04:33.669Z,3.1
2022-10-24T01:05:34.259Z,2.4
2022-10-24T01:06:34.854Z,2.8
2022-10-24T01:07:35.444Z,2.8
2022-10-24T01:08:36.043Z,2.2
2022-10-24T01:09:36.630Z,3.0
2022-10-24T01:10:37.252Z,2.6
2022-10-24T01:11:37.816Z,2.7
2022-10-24T01:12:38.429Z,2.8
2022-10-24T01:13:39.021Z,2.1
2022-10-24T01:14:39.615Z,2.9
2022-10-24T01:15:40.207Z,2.2
2022-10-24T01:16:40.802Z,2.3
2022-10-24T01:17:41.394Z,3.0
2022-10-24T01:18:42.020Z,2.6
2022-10-24T01:19:42.580Z,2.2
2022-10-24T01:20:43.174Z,2.6
2022-10-24T01:21:43.768Z,2.3
2022-10-24T01:22:44.646Z,2.1
2022-10-24T01:23:45.366Z,2.4
2022-10-24T01:24:45.963Z,2.5
2022-10-24T01:25:46.555Z,2.8
2022-10-24T01:26:47.151Z,2.3
2022-10-24T01:27:47.901Z,3.0
2022-10-24T01:28:48.512Z,2.5
2022-10-24T01:29:49.103Z,2.8
2022-10-24T01:30:49.701Z,2.7
2022-10-24T01:31:50.293Z,2.8
2022-10-24T01:32:50.888Z,2.3
2022-10-24T01:33:51.479Z,2.5
2022-10-24T01:34:52.073Z,2.7
2022-10-24T01:35:52.697Z,3.4
2022-10-24T01:36:53.280Z,3.2
2022-10-24T01:37:53.872Z,2.3
2022-10-24T01:38:54.466Z,2.5
2022-10-24T01:39:55.062Z,3.0
2022-10-24T01:40:55.654Z,2.3
2022-10-24T01:41:56.252Z,2.9
2022-10-24T01:42:56.848Z,2.2
2022-10-24T01:43:57.439Z,2.8
2022-10-24T01:44:58.034Z,2.3
2022-10-24T01:45:58.625Z,2.2
2022-10-24T01:46:59.220Z,2.8
2022-10-24T01:47:59.813Z,2.6
2022-10-24T01:49:00.407Z,2.5
2022-10-24T01:50:00.999Z,2.2
2022-10-24T01:51:01.591Z,2.5
2022-10-24T01:52:02.207Z,2.3
2022-10-24T01:53:02.811Z,2.2
2022-10-24T01:54:03.407Z,2.3
2022-10-24T01:55:04.001Z,2.0
2022-10-24T01:56:04.598Z,2.8
2022-10-24T01:57:05.191Z,2.0
2022-10-24T01:58:05.790Z,2.9
2022-10-24T01:59:06.374Z,2.7
2022-10-24T02:00:06.977Z,2.2
2022-10-24T02:01:07.586Z,2.6
2022-10-24T02:02:08.153Z,2.4
2022-10-24T02:03:08.745Z,2.7
2022-10-24T02:04:09.338Z,2.3
2022-10-24T02:05:09.932Z,2.5
2022-10-24T02:06:10.525Z,2.0
2022-10-24T02:07:11.117Z,1.8
2022-10-24T02:08:11.712Z,3.1
2022-10-24T02:09:12.304Z,2.6
2022-10-24T02:10:12.901Z,2.6
2022-10-24T02:11:13.495Z,2.9
2022-10-24T02:12:14.093Z,2.4
2022-10-24T02:13:14.681Z,2.1
2022-10-24T02:14:15.274Z,2.4
2022-10-24T02:15:15.866Z,2.4
2022-10-24T02:16:16.464Z,2.4
2022-10-24T02:17:17.103Z,2.5
2022-10-24T02:18:17.648Z,2.2
2022-10-24T02:19:18.237Z,2.3
2022-10-24T02:20:18.831Z,2.3
2022-10-24T02:21:19.427Z,2.6
2022-10-24T02:22:20.016Z,2.4
2022-10-24T02:23:20.612Z,2.5
2022-10-24T02:24:21.204Z,2.8
2022-10-24T02:25:21.799Z,2.4
2022-10-24T02:26:22.396Z,3.1
2022-10-24T02:27:22.987Z,2.0
2022-10-24T02:28:23.580Z,2.4
2022-10-24T02:29:24.172Z,2.2
2022-10-24T02:30:24.768Z,2.8
2022-10-24T02:31:25.359Z,2.5
2022-10-24T02:32:25.952Z,2.4
2022-10-24T02:33:26.544Z,2.4
2022-10-24T02:34:27.144Z,2.6
2022-10-24T02:35:27.733Z,2.4
2022-10-24T02:36:28.325Z,2.6
2022-10-24T02:37:28.919Z,2.7
2022-10-24T02:38:29.514Z,2.5
2022-10-24T02:39:30.108Z,2.9
2022-10-24T02:40:30.700Z,3.0
2022-10-24T02:41:31.293Z,2.5
2022-10-24T02:42:31.909Z,2.7
2022-10-24T02:43:32.477Z,2.2
2022-10-24T02:44:33.072Z,2.3
2022-10-24T02:45:33.665Z,2.0
2022-10-24T02:46:34.258Z,2.2
2022-10-24T02:47:34.848Z,1.9
2022-10-24T02:48:35.443Z,1.5
2022-10-24T02:49:36.036Z,2.2
2022-10-24T02:50:36.632Z,2.1
2022-10-24T02:51:37.222Z,1.9
2022-10-24T02:52:37.817Z,2.1
2022-10-24T02:53:38.412Z,1.9
2022-10-24T02:54:39.003Z,1.9
2022-10-24T02:55:39.593Z,2.1
2022-10-24T02:56:40.187Z,2.1
2022-10-24T02:57:40.780Z,1.9
2022-10-24T02:58:41.375Z,1.9
2022-10-24T02:59:41.967Z,2.1
2022-10-24T03:00:42.600Z,1.8
2022-10-24T03:01:43.219Z,2.2
2022-10-24T03:02:44.012Z,1.7
2022-10-24T03:03:44.790Z,2.1
2022-10-24T03:04:45.385Z,2.0
2022-10-24T03:05:45.998Z,1.7
2022-10-24T03:06:46.645Z,2.0
2022-10-24T03:07:47.200Z,2.3
2022-10-24T03:08:47.799Z,2.2
2022-10-24T03:09:48.408Z,1.9
2022-10-24T03:10:49.001Z,1.9
2022-10-24T03:11:49.596Z,1.7
2022-10-24T03:12:50.210Z,2.1
2022-10-24T03:13:50.809Z,1.9
2022-10-24T03:14:51.397Z,2.0
2022-10-24T03:15:51.990Z,1.9
2022-10-24T03:16:52.583Z,1.8
2022-10-24T03:17:53.184Z,2.1
2022-10-24T03:18:53.772Z,1.9
2022-10-24T03:19:54.369Z,2.5
2022-10-24T03:20:54.961Z,1.8
2022-10-24T03:21:55.554Z,2.0
2022-10-24T03:22:56.149Z,2.0
2022-10-24T03:23:56.782Z,2.5
2022-10-24T03:24:57.359Z,2.1
2022-10-24T03:25:57.954Z,2.6
2022-10-24T03:26:58.547Z,2.1
2022-10-24T03:27:59.140Z,2.1
2022-10-24T03:28:59.736Z,1.9
2022-10-24T03:30:00.331Z,2.1
2022-10-24T03:31:00.925Z,2.1
2022-10-24T03:32:01.515Z,1.9
2022-10-24T03:33:02.115Z,2.4
2022-10-24T03:34:02.701Z,1.9
2022-10-24T03:35:03.293Z,2.0
2022-10-24T03:36:03.907Z,2.4
2022-10-24T03:37:04.520Z,2.5
2022-10-24T03:38:05.110Z,2.5
2022-10-24T03:39:05.724Z,2.5
2022-10-24T03:40:06.300Z,2.9
2022-10-24T03:41:06.897Z,2.1
2022-10-24T03:42:07.490Z,2.4
2022-10-24T03:43:08.085Z,2.3
2022-10-24T03:44:08.677Z,2.2
2022-10-24T03:45:09.269Z,2.1
2022-10-24T03:46:09.864Z,2.4
2022-10-24T03:47:10.458Z,2.5
2022-10-24T03:48:11.050Z,2.6
2022-10-24T03:49:11.647Z,2.4
2022-10-24T03:50:12.237Z,2.5
2022-10-24T03:51:12.832Z,2.0
2022-10-24T03:52:13.423Z,2.5
2022-10-24T03:53:14.017Z,2.6
2022-10-24T03:54:14.611Z,2.9
2022-10-24T03:55:15.205Z,2.4
2022-10-24T03:56:15.799Z,2.5
2022-10-24T03:57:16.456Z,2.3
2022-10-24T03:58:16.996Z,2.4
2022-10-24T03:59:17.590Z,2.9
2022-10-24T04:00:18.184Z,2.1
2022-10-24T04:01:18.837Z,2.9
2022-10-24T04:02:19.439Z,2.3
2022-10-24T04:03:20.029Z,2.3
2022-10-24T04:04:20.620Z,2.6
2022-10-24T04:05:21.216Z,2.6
2022-10-24T04:06:21.808Z,3.1
2022-10-24T04:07:22.406Z,3.3
2022-10-24T04:08:22.994Z,2.7
2022-10-24T04:09:23.590Z,2.6
2022-10-24T04:10:24.183Z,2.5
2022-10-24T04:11:24.781Z,2.4
2022-10-24T04:12:25.374Z,2.6
2022-10-24T04:13:25.963Z,2.4
2022-10-24T04:14:26.557Z,2.1
2022-10-24T04:15:27.153Z,2.8
2022-10-24T04:16:27.745Z,2.1
2022-10-24T04:17:28.340Z,3.0
2022-10-24T04:18:28.952Z,2.2
2022-10-24T04:19:29.548Z,2.2
2022-10-24T04:20:30.141Z,2.1
2022-10-24T04:21:30.736Z,2.3
2022-10-24T04:22:31.328Z,2.2
2022-10-24T04:23:31.922Z,2.1
2022-10-24T04:24:32.511Z,2.2
2022-10-24T04:25:33.109Z,1.6
2022-10-24T04:26:33.699Z,2.3
2022-10-24T04:27:34.294Z,2.1
2022-10-24T04:28:34.904Z,2.2
2022-10-24T04:29:35.500Z,2.3
2022-10-24T04:30:36.151Z,2.0
2022-10-24T04:31:36.706Z,2.3
2022-10-24T04:32:37.298Z,1.9
2022-10-24T04:33:37.893Z,2.5
2022-10-24T04:34:38.487Z,1.8
2022-10-24T04:35:39.082Z,2.1
2022-10-24T04:36:39.673Z,1.8
2022-10-24T04:37:40.268Z,1.9
2022-10-24T04:38:40.863Z,2.3
2022-10-24T04:39:41.455Z,1.8
2022-10-24T04:40:42.049Z,2.1
2022-10-24T04:41:42.649Z,2.0
2022-10-24T04:42:43.540Z,2.2
2022-10-24T04:43:44.379Z,2.1
2022-10-24T04:44:44.992Z,2.2
2022-10-24T04:45:45.585Z,2.1
2022-10-24T04:46:50.614Z,1.9
2022-10-24T04:47:47.963Z,2.4
2022-10-24T04:48:48.571Z,1.7
2022-10-24T04:49:49.166Z,2.2
2022-10-24T04:50:49.778Z,2.4
2022-10-24T04:51:50.372Z,2.3
2022-10-24T04:52:50.968Z,2.0
2022-10-24T04:53:51.559Z,1.9
2022-10-24T04:54:52.151Z,2.8
2022-10-24T04:55:52.754Z,2.4
2022-10-24T04:56:53.339Z,2.2
2022-10-24T04:57:53.934Z,2.1
2022-10-24T04:58:54.526Z,2.2
2022-10-24T04:59:55.121Z,2.5
2022-10-24T05:00:55.714Z,2.4
2022-10-24T05:01:56.357Z,1.9
2022-10-24T05:02:59.032Z,2.2
2022-10-24T05:03:58.580Z,2.0
2022-10-24T05:04:59.155Z,2.0
2022-10-24T05:05:59.842Z,1.8
2022-10-24T05:07:00.366Z,3.3
2022-10-24T05:08:00.960Z,2.1
2022-10-24T05:09:01.566Z,2.2
2022-10-24T05:10:02.147Z,2.1
2022-10-24T05:11:02.738Z,2.4
2022-10-24T05:12:03.333Z,1.9
2022-10-24T05:13:03.928Z,2.0
2022-10-24T05:14:04.519Z,2.1
2022-10-24T05:15:05.110Z,2.4
2022-10-24T05:16:05.704Z,2.4
2022-10-24T05:17:06.298Z,2.3
2022-10-24T05:18:06.891Z,2.4
2022-10-24T05:19:07.484Z,2.3
2022-10-24T05:20:08.080Z,2.2
2022-10-24T05:21:08.670Z,2.5
2022-10-24T05:22:10.868Z,2.5
2022-10-24T05:23:10.851Z,2.1
2022-10-24T05:24:11.467Z,2.2
2022-10-24T05:25:12.059Z,2.2
2022-10-24T05:26:12.657Z,2.1
2022-10-24T05:27:13.246Z,2.7
2022-10-24T05:28:13.841Z,2.2
2022-10-24T05:29:14.471Z,2.1
2022-10-24T05:30:15.027Z,1.9
2022-10-24T05:31:15.620Z,1.9
2022-10-24T05:32:16.217Z,2.0
2022-10-24T05:33:16.809Z,2.2
2022-10-24T05:34:17.404Z,2.1
2022-10-24T05:35:17.998Z,2.5
2022-10-24T05:36:18.611Z,2.1
2022-10-24T05:37:19.277Z,1.9
2022-10-24T05:38:19.818Z,2.4
2022-10-24T05:39:20.405Z,3.4
2022-10-24T05:40:20.999Z,1.9
2022-10-24T05:41:21.593Z,2.0
2022-10-24T05:42:22.211Z,2.5
2022-10-24T05:43:22.801Z,2.3
2022-10-24T05:44:23.397Z,2.0
2022-10-24T05:45:23.990Z,2.1
2022-10-24T05:46:24.589Z,2.0
2022-10-24T05:47:26.949Z,2.0
2022-10-24T05:48:26.770Z,2.5
2022-10-24T05:49:27.363Z,2.0
2022-10-24T05:50:27.960Z,2.2
2022-10-24T05:51:28.553Z,2.3
2022-10-24T05:52:29.149Z,2.3
2022-10-24T05:53:29.744Z,2.0
2022-10-24T05:54:37.796Z,2.3
2022-10-24T05:55:31.929Z,2.6
2022-10-24T05:56:32.525Z,2.5
2022-10-24T05:57:33.121Z,2.5
2022-10-24T05:58:33.717Z,1.9
2022-10-24T05:59:34.315Z,1.9
2022-10-24T06:00:34.912Z,2.6
2022-10-24T06:01:35.559Z,2.1
2022-10-24T06:02:36.190Z,2.1
2022-10-24T06:03:36.780Z,2.0
2022-10-24T06:04:37.375Z,2.1
2022-10-24T06:05:37.972Z,1.8
2022-10-24T06:06:38.568Z,2.4
2022-10-24T06:07:39.168Z,1.6
2022-10-24T06:08:39.762Z,2.0
2022-10-24T06:09:40.362Z,2.2
2022-10-24T06:10:40.956Z,2.1
2022-10-24T06:11:41.572Z,2.3
2022-10-24T06:12:42.239Z,1.9
2022-10-24T06:13:42.897Z,2.2
2022-10-24T06:14:43.506Z,2.3
2022-10-24T06:15:44.144Z,2.3
2022-10-24T06:16:44.761Z,2.3
2022-10-24T06:17:45.359Z,2.0
2022-10-24T06:18:45.954Z,2.1
2022-10-24T06:19:46.554Z,1.9
2022-10-24T06:20:47.172Z,1.7
2022-10-24T06:21:47.770Z,1.8
2022-10-24T06:22:48.368Z,2.1
2022-10-24T06:23:48.964Z,2.3
2022-10-24T06:24:49.562Z,1.9
2022-10-24T06:25:50.182Z,2.7
2022-10-24T06:26:50.780Z,2.0
2022-10-24T06:27:51.392Z,2.4
2022-10-24T06:28:51.973Z,2.2
2022-10-24T06:29:52.574Z,2.3
2022-10-24T06:30:53.170Z,2.2
2022-10-24T06:31:53.768Z,2.0
2022-10-24T06:32:54.366Z,1.7
2022-10-24T06:33:54.965Z,1.8
2022-10-24T06:34:55.562Z,2.0
2022-10-24T06:35:56.161Z,2.2
2022-10-24T06:36:56.759Z,2.0
2022-10-24T06:37:57.357Z,2.3
2022-10-24T06:38:57.958Z,1.8
2022-10-24T06:39:58.554Z,2.3
2022-10-24T06:40:59.169Z,2.0
2022-10-24T06:41:59.768Z,1.9
2022-10-24T06:43:00.364Z,2.5
2022-10-24T06:44:00.963Z,2.1
2022-10-24T06:45:01.603Z,2.1
2022-10-24T06:46:02.163Z,2.2
2022-10-24T06:47:02.762Z,1.9
2022-10-24T06:48:03.362Z,2.6
2022-10-24T06:49:03.959Z,1.9
2022-10-24T06:50:04.559Z,2.0
2022-10-24T06:51:05.158Z,1.6
2022-10-24T06:52:05.759Z,2.0
2022-10-24T06:53:06.355Z,1.7
2022-10-24T06:54:06.958Z,2.2
2022-10-24T06:55:07.554Z,2.0
2022-10-24T06:56:08.154Z,1.8
2022-10-24T06:57:08.751Z,1.6
2022-10-24T06:58:09.353Z,2.4
2022-10-24T06:59:09.966Z,2.2
2022-10-24T07:00:10.565Z,2.1
2022-10-24T07:01:11.270Z,2.0
2022-10-24T07:02:12.039Z,1.9
2022-10-24T07:03:12.634Z,1.9
2022-10-24T07:04:13.293Z,2.1
2022-10-24T07:05:13.899Z,2.1
2022-10-24T07:06:14.546Z,2.1
2022-10-24T07:07:15.112Z,2.6
2022-10-24T07:08:15.710Z,2.0
2022-10-24T07:09:16.310Z,2.1
2022-10-24T07:10:16.906Z,1.8
2022-10-24T07:11:17.504Z,2.0
2022-10-24T07:13:18.711Z,2.2
2022-10-24T07:14:19.309Z,2.4
2022-10-24T07:15:19.908Z,1.9
2022-10-24T07:16:20.507Z,1.7
2022-10-24T07:17:21.108Z,2.0
2022-10-24T07:18:21.726Z,2.2
2022-10-24T07:19:22.325Z,2.2
2022-10-24T07:20:22.944Z,1.9
2022-10-24T07:21:23.542Z,1.5
2022-10-24T07:22:24.139Z,1.7
2022-10-24T07:23:24.738Z,2.7
2022-10-24T07:24:25.337Z,1.8
2022-10-24T07:25:25.935Z,2.1
2022-10-24T07:26:26.536Z,2.3
2022-10-24T07:27:27.131Z,2.3
2022-10-24T07:28:27.731Z,2.0
2022-10-24T07:29:28.328Z,2.1
2022-10-24T07:30:28.927Z,1.7
2022-10-24T07:31:29.523Z,1.7
2022-10-24T07:32:30.121Z,1.9
2022-10-24T07:33:30.720Z,2.2
2022-10-24T07:34:31.321Z,2.4
2022-10-24T07:35:31.920Z,1.5
2022-10-24T07:36:32.521Z,1.7
2022-10-24T07:37:33.119Z,1.7
2022-10-24T07:38:33.723Z,1.9
2022-10-24T07:39:34.316Z,1.9
2022-10-24T07:40:34.916Z,1.9
2022-10-24T07:41:35.515Z,2.6
2022-10-24T07:42:36.115Z,2.2
2022-10-24T07:43:36.711Z,1.7
2022-10-24T07:44:37.311Z,1.7
2022-10-24T07:45:37.909Z,1.8
2022-10-24T07:46:38.528Z,2.1
2022-10-24T07:47:39.126Z,1.5
2022-10-24T07:48:39.726Z,2.3
2022-10-24T07:49:40.323Z,1.8
2022-10-24T07:50:40.942Z,1.7
2022-10-24T07:51:41.540Z,1.5
2022-10-24T07:52:42.140Z,1.5
2022-10-24T07:53:42.742Z,1.6
2022-10-24T07:54:43.367Z,1.7
2022-10-24T07:55:43.969Z,1.7
2022-10-24T07:56:44.563Z,1.7
2022-10-24T07:57:45.479Z,1.9
2022-10-24T07:58:46.226Z,2.2
2022-10-24T07:59:46.834Z,2.0
2022-10-24T08:00:47.426Z,1.7
2022-10-24T08:01:48.117Z,1.5
2022-10-24T08:03:50.160Z,1.8
2022-10-24T08:04:50.781Z,2.2
2022-10-24T08:05:51.377Z,2.0
2022-10-24T08:06:51.978Z,1.5
2022-10-24T08:07:55.940Z,2.2
2022-10-24T08:08:54.176Z,2.0
2022-10-24T08:09:54.777Z,1.6
2022-10-24T08:10:55.399Z,1.8
2022-10-24T08:11:55.977Z,1.6
2022-10-24T08:12:56.577Z,1.9
2022-10-24T08:13:57.177Z,1.8
2022-10-24T08:14:57.776Z,1.7
2022-10-24T08:15:58.375Z,2.0
2022-10-24T08:16:58.974Z,1.5
2022-10-24T08:17:59.583Z,1.3
2022-10-24T08:19:00.174Z,1.5
2022-10-24T08:20:00.791Z,1.7
2022-10-24T08:21:01.390Z,1.7
2022-10-24T08:22:01.991Z,1.8
2022-10-24T08:23:02.592Z,1.5
2022-10-24T08:24:03.198Z,1.9
2022-10-24T08:25:03.796Z,1.5
2022-10-24T08:26:04.391Z,1.5
2022-10-24T08:27:04.992Z,1.6
2022-10-24T08:28:08.296Z,1.3
2022-10-24T08:29:07.183Z,1.4
2022-10-24T08:30:07.781Z,2.0
2022-10-24T08:31:08.383Z,1.6
2022-10-24T08:32:08.986Z,2.2
2022-10-24T08:33:09.601Z,1.6
2022-10-24T08:34:10.199Z,1.4
2022-10-24T08:35:10.800Z,1.5
2022-10-24T08:36:11.400Z,1.7
2022-10-24T08:37:11.998Z,1.5
2022-10-24T08:38:12.597Z,1.6
2022-10-24T08:39:13.202Z,1.5
2022-10-24T08:40:13.803Z,1.8
2022-10-24T08:41:14.406Z,1.1
2022-10-24T08:42:15.024Z,1.5
2022-10-24T08:43:15.624Z,1.8
2022-10-24T08:44:16.232Z,1.6
2022-10-24T08:45:16.827Z,1.7
2022-10-24T08:46:17.426Z,1.8
2022-10-24T08:47:18.029Z,1.6
2022-10-24T08:48:18.628Z,1.5
2022-10-24T08:49:19.231Z,1.7
2022-10-24T08:50:19.850Z,2.0
2022-10-24T08:51:20.450Z,1.6
2022-10-24T08:52:21.050Z,1.6
2022-10-24T08:53:21.670Z,1.6
2022-10-24T08:54:22.278Z,1.5
2022-10-24T08:55:44.383Z,2.0
2022-10-24T08:56:24.472Z,1.8
2022-10-24T08:57:25.106Z,2.0
2022-10-24T08:58:25.674Z,1.7
2022-10-24T08:59:26.298Z,1.8
2022-10-24T09:00:26.873Z,1.9
2022-10-24T09:01:27.589Z,1.9
2022-10-24T09:02:28.284Z,1.5
2022-10-24T09:03:50.852Z,1.5
2022-10-24T09:04:30.498Z,1.7
2022-10-24T09:05:31.098Z,1.2
2022-10-24T09:06:31.700Z,1.7
2022-10-24T09:07:32.319Z,1.9
2022-10-24T09:08:32.921Z,1.6
2022-10-24T09:09:33.523Z,1.7
2022-10-24T09:10:34.122Z,1.7
2022-10-24T09:11:34.722Z,1.5
2022-10-24T09:12:35.322Z,1.5
2022-10-24T09:13:35.945Z,1.5
2022-10-24T09:14:36.542Z,1.6
2022-10-24T09:15:37.148Z,1.4
2022-10-24T09:16:37.749Z,1.3
2022-10-24T09:17:38.348Z,1.6
2022-10-24T09:18:38.945Z,1.8
2022-10-24T09:19:39.551Z,1.9
2022-10-24T09:20:40.148Z,1.8
2022-10-24T09:21:40.761Z,1.5
2022-10-24T09:22:44.156Z,1.4
2022-10-24T09:23:42.955Z,1.7
2022-10-24T09:24:43.557Z,1.8
2022-10-24T09:25:44.152Z,2.3
2022-10-24T09:26:44.751Z,1.6
2022-10-24T09:27:45.855Z,1.9
2022-10-24T09:28:46.650Z,1.5
2022-10-24T09:29:47.251Z,1.3
2022-10-24T09:30:47.850Z,2.0
2022-10-24T09:31:48.451Z,1.6
2022-10-24T09:32:49.051Z,1.4
2022-10-24T09:33:49.651Z,1.2
2022-10-24T09:34:50.276Z,1.9
2022-10-24T09:35:50.875Z,1.5
2022-10-24T09:36:51.476Z,1.4
2022-10-24T09:37:52.497Z,1.5
2022-10-24T09:38:53.225Z,1.8
2022-10-24T09:39:53.825Z,1.6
2022-10-24T09:40:54.428Z,1.4
2022-10-24T09:41:55.027Z,1.5
2022-10-24T09:42:55.627Z,1.2
2022-10-24T09:43:56.238Z,1.5
2022-10-24T09:44:56.829Z,1.6
2022-10-24T09:45:57.430Z,1.5
2022-10-24T09:46:58.029Z,1.6
2022-10-24T09:47:58.630Z,1.5
2022-10-24T09:48:59.239Z,1.5
2022-10-24T09:49:59.849Z,1.8
2022-10-24T09:51:00.485Z,1.5
2022-10-24T09:52:01.065Z,1.5
2022-10-24T09:53:01.665Z,1.3
2022-10-24T09:54:02.265Z,1.7
2022-10-24T09:55:02.862Z,1.6
2022-10-24T09:56:03.462Z,1.8
2022-10-24T09:57:04.082Z,1.4
2022-10-24T09:58:04.665Z,1.7
2022-10-24T09:59:05.262Z,2.0
2022-10-24T10:00:05.862Z,1.5
2022-10-24T10:01:06.540Z,1.5
2022-10-24T10:02:07.231Z,1.5
2022-10-24T10:03:07.841Z,1.4
2022-10-24T10:04:10.652Z,1.9
2022-10-24T10:05:10.025Z,1.6
2022-10-24T10:06:10.633Z,1.7
2022-10-24T10:07:11.226Z,1.8
2022-10-24T10:08:11.848Z,1.6
2022-10-24T10:09:12.445Z,1.7
2022-10-24T10:10:13.044Z,1.6
2022-10-24T10:11:13.643Z,1.3
2022-10-24T10:12:14.243Z,1.4
2022-10-24T10:13:14.857Z,1.4
2022-10-24T10:14:15.450Z,1.1
2022-10-24T10:15:16.075Z,1.7
2022-10-24T10:16:16.672Z,1.4
2022-10-24T10:17:17.276Z,1.6
2022-10-24T10:18:17.872Z,1.4
2022-10-24T10:19:18.471Z,1.3
2022-10-24T10:20:19.662Z,1.6
2022-10-24T10:21:20.249Z,1.4
2022-10-24T10:22:20.851Z,1.7
2022-10-24T10:23:21.469Z,1.2
2022-10-24T10:24:22.070Z,1.8
2022-10-24T10:25:22.673Z,1.5
2022-10-24T10:26:23.270Z,1.4
2022-10-24T10:27:23.869Z,1.5
2022-10-24T10:28:24.467Z,1.6
2022-10-24T10:29:25.081Z,1.9
2022-10-24T10:30:25.688Z,1.5
2022-10-24T10:31:26.288Z,1.6
2022-10-24T10:32:26.889Z,1.3
2022-10-24T10:33:27.575Z,1.4
2022-10-24T10:34:28.117Z,1.4
2022-10-24T10:35:28.741Z,1.5
2022-10-24T10:36:29.337Z,1.2
2022-10-24T10:37:29.942Z,1.4
2022-10-24T10:38:30.537Z,1.5
2022-10-24T10:39:31.157Z,1.5
2022-10-24T10:40:31.740Z,1.5
2022-10-24T10:41:32.343Z,1.5
2022-10-24T10:42:32.942Z,1.4
2022-10-24T10:43:33.564Z,1.3
2022-10-24T10:44:34.161Z,1.3
2022-10-24T10:45:34.760Z,0.9
2022-10-24T10:46:35.359Z,1.5
2022-10-24T10:47:35.959Z,1.4
2022-10-24T10:48:36.581Z,1.3
2022-10-24T10:49:37.182Z,1.9
2022-10-24T10:50:37.784Z,1.1
2022-10-24T10:51:38.386Z,1.8
2022-10-24T10:52:38.982Z,1.6
2022-10-24T10:53:39.581Z,1.3
2022-10-24T10:54:40.181Z,1.1
2022-10-24T10:55:40.783Z,1.5
2022-10-24T10:56:41.381Z,1.3
2022-10-24T10:57:41.982Z,1.3
2022-10-24T10:58:42.582Z,1.4
2022-10-24T10:59:43.179Z,1.6
2022-10-24T11:00:43.780Z,1.3
2022-10-24T11:01:44.499Z,1.3
2022-10-24T11:02:48.257Z,1.2
2022-10-24T11:03:46.722Z,1.3
2022-10-24T11:04:47.324Z,1.1
2022-10-24T11:05:47.945Z,1.0
2022-10-24T11:06:48.572Z,1.4
2022-10-24T11:07:49.164Z,1.2
2022-10-24T11:08:49.764Z,1.1
2022-10-24T11:09:50.362Z,1.4
2022-10-24T11:10:50.961Z,1.2
2022-10-24T11:11:51.561Z,1.5
2022-10-24T11:12:52.157Z,1.6
2022-10-24T11:13:52.756Z,1.2
2022-10-24T11:14:53.361Z,1.3
2022-10-24T11:15:53.959Z,1.5
2022-10-24T11:16:54.558Z,1.7
2022-10-24T11:17:55.157Z,1.2
2022-10-24T11:18:55.759Z,1.2
2022-10-24T11:19:56.355Z,1.8
2022-10-24T11:20:56.956Z,1.3
2022-10-24T11:21:57.576Z,1.3
2022-10-24T11:22:58.175Z,1.2
2022-10-24T11:23:58.776Z,1.6
2022-10-24T11:24:59.394Z,1.5
2022-10-24T11:26:00.015Z,1.3
2022-10-24T11:27:00.612Z,1.7
2022-10-24T11:28:01.215Z,1.7
2022-10-24T11:29:01.813Z,2.1
2022-10-24T11:30:02.432Z,1.6
2022-10-24T11:31:03.031Z,1.5
2022-10-24T11:33:04.238Z,1.1
2022-10-24T11:34:04.839Z,1.4
2022-10-24T11:35:05.437Z,2.1
2022-10-24T11:36:06.038Z,1.2
2022-10-24T11:37:06.635Z,1.4
2022-10-24T11:38:07.255Z,1.4
2022-10-24T11:39:07.852Z,1.4
2022-10-24T11:40:08.452Z,1.0
2022-10-24T11:41:09.220Z,1.4
2022-10-24T11:42:09.829Z,1.3
2022-10-24T11:43:10.442Z,1.2
2022-10-24T11:44:11.099Z,1.3
2022-10-24T11:45:11.698Z,1.5
2022-10-24T11:46:12.297Z,1.6
2022-10-24T11:47:12.897Z,1.5
2022-10-24T11:48:13.530Z,1.7
2022-10-24T11:49:14.099Z,1.4
2022-10-24T11:50:14.701Z,1.6
2022-10-24T11:51:15.300Z,1.6
2022-10-24T11:52:15.899Z,1.2
2022-10-24T11:53:16.498Z,1.6
2022-10-24T11:54:17.098Z,1.5
2022-10-24T11:55:17.696Z,1.4
2022-10-24T11:56:19.117Z,1.3
2022-10-24T11:57:19.889Z,1.2
2022-10-24T11:58:20.489Z,1.0
2022-10-24T11:59:21.087Z,1.4
2022-10-24T12:00:21.687Z,1.6
2022-10-24T12:01:22.337Z,1.3
2022-10-24T12:02:22.930Z,1.5
2022-10-24T12:03:23.483Z,1.0
2022-10-24T12:04:24.084Z,1.2
2022-10-24T12:05:24.692Z,1.6
2022-10-24T12:06:25.284Z,1.1
2022-10-24T12:07:25.884Z,1.4
2022-10-24T12:08:26.503Z,1.7
2022-10-24T12:09:29.577Z,1.3
2022-10-24T12:10:27.699Z,1.3
2022-10-24T12:11:28.319Z,1.4
2022-10-24T12:12:28.924Z,1.4
2022-10-24T12:13:29.521Z,1.5
2022-10-24T12:14:30.120Z,1.3
2022-10-24T12:15:32.210Z,1.3
2022-10-24T12:16:32.407Z,1.3
2022-10-24T12:17:33.007Z,1.5
2022-10-24T12:18:33.629Z,1.6
2022-10-24T12:19:34.237Z,1.2
2022-10-24T12:20:34.832Z,1.6
2022-10-24T12:21:35.432Z,1.3
2022-10-24T12:22:36.032Z,1.6
2022-10-24T12:23:36.632Z,1.3
2022-10-24T12:24:37.233Z,1.2
2022-10-24T12:25:37.833Z,1.4
2022-10-24T12:26:38.517Z,1.5
2022-10-24T12:27:39.051Z,1.4
2022-10-24T12:28:39.660Z,1.7
2022-10-24T12:29:40.255Z,1.0
2022-10-24T12:30:40.919Z,1.3
2022-10-24T12:31:41.503Z,1.2
2022-10-24T12:32:42.103Z,1.1
2022-10-24T12:33:42.702Z,1.5
2022-10-24T12:34:48.749Z,1.3
2022-10-24T12:35:44.896Z,1.6
2022-10-24T12:36:45.497Z,1.6
2022-10-24T12:37:46.986Z,1.2
2022-10-24T12:38:47.597Z,1.6
2022-10-24T12:39:48.200Z,1.4
2022-10-24T12:40:48.819Z,1.3
2022-10-24T12:41:49.473Z,1.8
2022-10-24T12:42:50.054Z,1.2
2022-10-24T12:43:50.658Z,1.5
2022-10-24T12:44:51.258Z,1.5
2022-10-24T12:45:51.856Z,1.9
2022-10-24T12:46:52.459Z,1.7
2022-10-24T12:47:53.096Z,1.2
2022-10-24T12:48:53.663Z,1.4
2022-10-24T12:49:54.265Z,1.4
2022-10-24T12:50:54.882Z,1.1
2022-10-24T12:51:55.480Z,1.4
2022-10-24T12:52:56.081Z,1.5
2022-10-24T12:53:56.680Z,1.6
2022-10-24T12:54:57.279Z,1.6
2022-10-24T12:55:57.879Z,1.4
2022-10-24T12:56:58.480Z,1.6
2022-10-24T12:57:59.079Z,1.1
2022-10-24T12:58:59.682Z,1.8
2022-10-24T13:00:00.279Z,1.3
2022-10-24T13:01:00.923Z,1.8
2022-10-24T13:02:03.678Z,1.6
2022-10-24T13:03:03.072Z,1.4
2022-10-24T13:04:03.675Z,1.2
2022-10-24T13:05:04.291Z,2.0
2022-10-24T13:06:04.893Z,2.0
2022-10-24T13:07:05.526Z,1.5
2022-10-24T13:08:06.129Z,1.2
2022-10-24T13:09:06.727Z,1.6
2022-10-24T13:10:07.411Z,1.6
2022-10-24T13:11:07.961Z,1.8
2022-10-24T13:12:08.579Z,1.5
2022-10-24T13:14:09.782Z,1.4
2022-10-24T13:15:10.382Z,1.5
2022-10-24T13:16:10.983Z,1.2
2022-10-24T13:17:11.583Z,1.5
2022-10-24T13:18:12.181Z,1.8
2022-10-24T13:19:12.780Z,1.7
2022-10-24T13:20:13.379Z,1.5
2022-10-24T13:21:14.999Z,1.2
2022-10-24T13:22:15.573Z,1.5
2022-10-24T13:23:16.172Z,1.4
2022-10-24T13:24:16.773Z,1.4
2022-10-24T13:25:17.393Z,1.4
2022-10-24T13:26:17.993Z,1.4
2022-10-24T13:27:18.616Z,1.5
2022-10-24T13:28:19.215Z,1.7
2022-10-24T13:29:19.817Z,1.4
2022-10-24T13:30:20.415Z,1.1
2022-10-24T13:31:21.018Z,1.4
2022-10-24T13:32:21.616Z,1.5
2022-10-24T13:33:22.219Z,2.1
2022-10-24T13:34:22.819Z,2.0
2022-10-24T13:35:23.420Z,1.7
2022-10-24T13:36:28.122Z,1.5
2022-10-24T13:37:25.616Z,1.2
2022-10-24T13:38:26.248Z,1.5
2022-10-24T13:39:26.835Z,2.4
2022-10-24T13:40:27.438Z,1.5
2022-10-24T13:41:28.040Z,1.4
2022-10-24T13:42:28.639Z,1.2
2022-10-24T13:43:29.241Z,2.0
2022-10-24T13:44:29.843Z,1.4
2022-10-24T13:45:30.447Z,1.7
2022-10-24T13:46:31.174Z,1.8
2022-10-24T13:47:31.661Z,1.5
2022-10-24T13:48:32.262Z,1.2
2022-10-24T13:49:32.864Z,1.3
2022-10-24T13:50:33.461Z,1.3
2022-10-24T13:51:34.061Z,1.2
2022-10-24T13:52:34.660Z,1.1
2022-10-24T13:53:35.263Z,1.2
2022-10-24T13:54:35.861Z,1.9
2022-10-24T13:55:36.463Z,2.0
2022-10-24T13:56:37.068Z,1.7
2022-10-24T13:57:37.666Z,2.1
2022-10-24T13:58:40.892Z,1.6
2022-10-24T13:59:39.859Z,1.5